Time;durP1;ratioP1;P1;durP2;ratioP2;P2;SDS_P1;SDS_P2;PMS_P1;PMS_P2;Temp;Humidity;BMP_temperature;BMP_pressure;BME280_temperature;BME280_humidity;BME280_pressure;Samples;Min_cycle;Max_cycle;Signal;HPM_P1;HPM_P2
2022/04/13 00:00:59;;;;;;;;;;;12.70;99.90;;;;;;5071473;28;19931;-78
2022/04/13 00:03:25;;;;;;;;;;;12.70;99.90;;;;;;5065525;28;19935;-78
2022/04/13 00:05:52;;;;;;;;;;;12.60;99.90;;;;;;5071784;28;19932;-78
2022/04/13 00:08:18;;;;;;;;;;;12.60;99.90;;;;;;5072261;28;19925;-78
2022/04/13 00:10:45;;;;;;;;;;;12.60;99.90;;;;;;5068772;28;19928;-78
2022/04/13 00:13:11;;;;;;;;;;;12.70;99.90;;;;;;5063203;28;19930;-77
2022/04/13 00:15:38;;;;;;;;;;;12.60;99.90;;;;;;5071180;28;19925;-84
2022/04/13 00:18:05;;;;;;;;;;;12.60;99.90;;;;;;5068642;28;19924;-82
2022/04/13 00:20:31;;;;;;;;;;;12.60;99.90;;;;;;5084662;28;19931;-78
2022/04/13 00:22:58;;;;;;;;;;;12.60;99.90;;;;;;5077247;28;19928;-81
2022/04/13 00:25:24;;;;;;;;;;;12.60;99.90;;;;;;5070714;28;19924;-78
2022/04/13 00:27:51;;;;;;;;;;;12.60;99.90;;;;;;5071268;28;20007;-78
2022/04/13 00:30:17;;;;;;;;;;;12.60;99.90;;;;;;5061869;28;19924;-76
2022/04/13 00:32:44;;;;;;;;;;;12.50;99.90;;;;;;5070509;28;19931;-78
2022/04/13 00:35:10;;;;;;;;;;;12.50;99.90;;;;;;5060104;28;19925;-77
2022/04/13 00:37:37;;;;;;;;;;;12.50;99.90;;;;;;5069871;28;19928;-77
2022/04/13 00:40:04;;;;;;;;;;;12.40;99.90;;;;;;5065344;28;19932;-77
2022/04/13 00:42:31;;;;;;;;;;;12.50;99.90;;;;;;5070654;28;19928;-78
2022/04/13 00:44:57;;;;;;;;;;;12.40;99.90;;;;;;5071574;28;20398;-78
2022/04/13 00:47:24;;;;;;;;;;;12.40;99.90;;;;;;5071671;28;19936;-78
2022/04/13 00:49:50;;;;;;;;;;;12.40;99.90;;;;;;5068601;28;19925;-79
2022/04/13 00:52:17;;;;;;;;;;;12.40;99.90;;;;;;5070457;28;19924;-81
2022/04/13 00:54:44;;;;;;;;;;;12.30;99.90;;;;;;5062207;28;20368;-78
2022/04/13 00:57:11;;;;;;;;;;;12.30;99.90;;;;;;5056503;28;19936;-78
2022/04/13 00:59:37;;;;;;;;;;;12.30;99.90;;;;;;5071075;28;19928;-77
2022/04/13 01:02:04;;;;;;;;;;;12.30;99.90;;;;;;5066954;28;19931;-77
2022/04/13 01:04:30;;;;;;;;;;;12.20;99.90;;;;;;5070084;28;19925;-79
2022/04/13 01:06:57;;;;;;;;;;;12.30;99.90;;;;;;5058820;28;19925;-78
2022/04/13 01:09:25;;;;;;;;;;;12.20;99.90;;;;;;5064874;28;19929;-78
2022/04/13 01:11:51;;;;;;;;;;;12.10;99.90;;;;;;5064692;28;19925;-78
2022/04/13 01:14:18;;;;;;;;;;;12.10;99.90;;;;;;5066777;28;19925;-78
2022/04/13 01:16:44;;;;;;;;;;;12.10;99.90;;;;;;5061588;28;19924;-79
2022/04/13 01:19:13;;;;;;;;;;;12.00;99.90;;;;;;5070799;28;19925;-78
2022/04/13 01:21:42;;;;;;;;;;;11.90;99.90;;;;;;5061516;28;19925;-77
2022/04/13 01:24:08;;;;;;;;;;;11.80;99.90;;;;;;5062452;28;20012;-78
2022/04/13 01:26:35;;;;;;;;;;;11.90;99.90;;;;;;5070383;28;20356;-79
2022/04/13 01:29:01;;;;;;;;;;;11.80;99.90;;;;;;5072511;28;20457;-78
2022/04/13 01:31:28;;;;;;;;;;;11.80;99.90;;;;;;5068504;28;19925;-77
2022/04/13 01:33:56;;;;;;;;;;;11.80;99.90;;;;;;5060674;28;19924;-78
2022/04/13 01:36:22;;;;;;;;;;;11.80;99.90;;;;;;5062980;28;19924;-82
2022/04/13 01:38:49;;;;;;;;;;;11.70;99.90;;;;;;5072847;28;19925;-78
2022/04/13 01:41:15;;;;;;;;;;;11.70;99.90;;;;;;5062492;28;20287;-78
2022/04/13 01:43:42;;;;;;;;;;;11.60;99.90;;;;;;5070652;28;19932;-80
2022/04/13 01:46:09;;;;;;;;;;;11.50;99.90;;;;;;5071462;28;19931;-78
2022/04/13 01:48:35;;;;;;;;;;;11.50;99.90;;;;;;5071603;28;19932;-78
2022/04/13 01:51:02;;;;;;;;;;;11.40;99.90;;;;;;5073978;28;19947;-78
2022/04/13 01:53:28;;;;;;;;;;;11.40;99.90;;;;;;5074592;28;19924;-78
2022/04/13 01:55:55;;;;;;;;;;;11.40;99.90;;;;;;5074152;28;19924;-78
2022/04/13 01:58:21;;;;;;;;;;;11.40;99.90;;;;;;5074514;28;19925;-78
2022/04/13 02:00:54;;;;;;;;;;;11.50;99.90;;;;;;5060574;28;19947;-78
2022/04/13 02:03:21;;;;;;;;;;;11.40;99.90;;;;;;5061497;28;19925;-78
2022/04/13 02:05:48;;;;;;;;;;;11.40;99.90;;;;;;5062212;28;20295;-79
2022/04/13 02:08:15;;;;;;;;;;;11.40;99.90;;;;;;5069646;28;19932;-76
2022/04/13 02:10:41;;;;;;;;;;;11.40;99.90;;;;;;5074346;28;19928;-77
2022/04/13 02:13:08;;;;;;;;;;;11.30;99.90;;;;;;5065035;28;20011;-78
2022/04/13 02:15:34;;;;;;;;;;;11.30;99.90;;;;;;5067159;28;19924;-77
2022/04/13 02:18:01;;;;;;;;;;;11.40;99.90;;;;;;5063773;28;20287;-76
2022/04/13 02:20:27;;;;;;;;;;;11.30;99.90;;;;;;5070966;28;19929;-78
2022/04/13 02:22:54;;;;;;;;;;;11.40;99.90;;;;;;5067390;28;19925;-77
2022/04/13 02:25:20;;;;;;;;;;;11.40;99.90;;;;;;5064209;28;19924;-77
2022/04/13 02:27:47;;;;;;;;;;;11.30;99.90;;;;;;5067691;28;19929;-83
2022/04/13 02:30:15;;;;;;;;;;;11.40;99.90;;;;;;5073764;28;19929;-77
2022/04/13 02:32:43;;;;;;;;;;;11.30;99.90;;;;;;5073230;28;19975;-76
2022/04/13 02:35:10;;;;;;;;;;;11.30;99.90;;;;;;5061626;28;20015;-78
2022/04/13 02:37:36;;;;;;;;;;;11.30;99.90;;;;;;5072630;28;19924;-78
2022/04/13 02:40:03;;;;;;;;;;;11.30;99.90;;;;;;5072084;28;19924;-78
2022/04/13 02:42:29;;;;;;;;;;;11.20;99.90;;;;;;5074284;28;19932;-76
2022/04/13 02:44:56;;;;;;;;;;;11.20;99.90;;;;;;5072712;28;19924;-79
2022/04/13 02:47:22;;;;;;;;;;;11.30;99.90;;;;;;5073126;28;19925;-80
2022/04/13 02:49:49;;;;;;;;;;;11.20;99.90;;;;;;5072988;28;19932;-84
2022/04/13 02:52:15;;;;;;;;;;;11.20;99.90;;;;;;5073379;28;19925;-79
2022/04/13 02:54:42;;;;;;;;;;;11.20;99.90;;;;;;5073952;28;19924;-80
2022/04/13 02:57:08;;;;;;;;;;;11.20;99.90;;;;;;5073107;28;19928;-79
2022/04/13 02:59:35;;;;;;;;;;;11.20;99.90;;;;;;5074166;28;19943;-79
2022/04/13 03:02:04;;;;;;;;;;;11.20;99.90;;;;;;5072478;28;19924;-78
2022/04/13 03:04:32;;;;;;;;;;;11.20;99.90;;;;;;5074064;28;20367;-79
2022/04/13 03:06:58;;;;;;;;;;;11.20;99.90;;;;;;5073084;28;19925;-79
2022/04/13 03:09:25;;;;;;;;;;;11.20;99.90;;;;;;5073211;28;19924;-79
2022/04/13 03:11:51;;;;;;;;;;;11.20;99.90;;;;;;5072844;28;19924;-84
2022/04/13 03:14:18;;;;;;;;;;;11.20;99.90;;;;;;5073080;28;19931;-79
2022/04/13 03:16:45;;;;;;;;;;;11.30;99.90;;;;;;5072505;28;19924;-79
2022/04/13 03:19:12;;;;;;;;;;;11.20;99.90;;;;;;5055761;28;20097;-79
2022/04/13 03:21:38;;;;;;;;;;;11.20;99.90;;;;;;5065819;28;19932;-79
2022/04/13 03:24:05;;;;;;;;;;;11.20;99.90;;;;;;5071454;28;20280;-80
2022/04/13 03:26:31;;;;;;;;;;;11.20;99.90;;;;;;5064895;28;19947;-83
2022/04/13 03:28:58;;;;;;;;;;;11.20;99.90;;;;;;5071601;28;20299;-77
2022/04/13 03:31:24;;;;;;;;;;;11.20;99.90;;;;;;5073724;28;19944;-79
2022/04/13 03:33:51;;;;;;;;;;;11.20;99.90;;;;;;5071352;28;19939;-84
2022/04/13 03:36:18;;;;;;;;;;;11.20;99.90;;;;;;5071978;28;19929;-79
2022/04/13 03:38:45;;;;;;;;;;;11.20;99.90;;;;;;5071284;28;19925;-79
2022/04/13 03:41:11;;;;;;;;;;;11.20;99.90;;;;;;5069283;28;19951;-77
2022/04/13 03:43:38;;;;;;;;;;;11.10;99.90;;;;;;5067219;28;19928;-81
2022/04/13 03:46:04;;;;;;;;;;;11.10;99.90;;;;;;5072471;28;19947;-79
2022/04/13 03:48:31;;;;;;;;;;;11.10;99.90;;;;;;5073155;28;19925;-79
2022/04/13 03:50:57;;;;;;;;;;;11.10;99.90;;;;;;5070879;28;19955;-79
2022/04/13 03:53:24;;;;;;;;;;;11.10;99.90;;;;;;5071658;28;19974;-79
2022/04/13 03:55:51;;;;;;;;;;;11.10;99.90;;;;;;5072924;28;19925;-79
2022/04/13 03:58:17;;;;;;;;;;;11.10;99.90;;;;;;5060249;28;19929;-79
2022/04/13 04:00:44;;;;;;;;;;;11.10;99.90;;;;;;5070656;28;20334;-77
2022/04/13 04:03:10;;;;;;;;;;;11.10;99.90;;;;;;5063375;28;20367;-78
2022/04/13 04:05:37;;;;;;;;;;;11.00;99.90;;;;;;5067476;28;19924;-79
2022/04/13 04:08:03;;;;;;;;;;;11.10;99.90;;;;;;5065537;28;19932;-78
2022/04/13 04:10:30;;;;;;;;;;;11.10;99.90;;;;;;5069601;28;19925;-79
2022/04/13 04:12:56;;;;;;;;;;;11.00;99.90;;;;;;5072130;28;19924;-83
2022/04/13 04:15:23;;;;;;;;;;;11.00;99.90;;;;;;5071765;28;19925;-79
2022/04/13 04:17:49;;;;;;;;;;;11.00;99.90;;;;;;5071379;28;19929;-79
2022/04/13 04:20:16;;;;;;;;;;;11.00;99.90;;;;;;5097181;28;19925;-78
2022/04/13 04:22:43;;;;;;;;;;;11.00;99.90;;;;;;5072572;28;19924;-78
2022/04/13 04:25:09;;;;;;;;;;;11.00;99.90;;;;;;5092038;28;19924;-79
2022/04/13 04:27:36;;;;;;;;;;;10.90;99.90;;;;;;5058987;28;20414;-79
2022/04/13 04:30:02;;;;;;;;;;;11.00;99.90;;;;;;5058922;28;20285;-79
2022/04/13 04:32:29;;;;;;;;;;;11.00;99.90;;;;;;5072224;28;19924;-79
2022/04/13 04:34:55;;;;;;;;;;;11.00;99.90;;;;;;5071510;28;19924;-83
2022/04/13 04:37:24;;;;;;;;;;;11.00;99.90;;;;;;5057050;28;20607;-81
2022/04/13 04:39:51;;;;;;;;;;;11.00;99.90;;;;;;5071745;28;19924;-82
2022/04/13 04:42:17;;;;;;;;;;;11.00;99.90;;;;;;5066955;28;19981;-79
2022/04/13 04:44:45;;;;;;;;;;;11.00;99.90;;;;;;5071031;28;19924;-77
2022/04/13 04:47:12;;;;;;;;;;;11.00;99.90;;;;;;5070167;28;19928;-79
2022/04/13 04:49:38;;;;;;;;;;;11.00;99.90;;;;;;5071011;28;20027;-78
2022/04/13 04:52:05;;;;;;;;;;;11.00;99.90;;;;;;5056508;28;19924;-80
2022/04/13 04:54:31;;;;;;;;;;;11.00;99.90;;;;;;5063426;28;19925;-78
2022/04/13 04:56:58;;;;;;;;;;;11.00;99.90;;;;;;5064918;28;19929;-83
2022/04/13 04:59:25;;;;;;;;;;;11.10;99.90;;;;;;5070961;28;19933;-80
2022/04/13 05:01:51;;;;;;;;;;;11.00;99.90;;;;;;5057669;28;19925;-79
2022/04/13 05:04:18;;;;;;;;;;;11.00;99.90;;;;;;5071795;28;19939;-79
2022/04/13 05:06:44;;;;;;;;;;;11.00;99.90;;;;;;5066976;28;19924;-79
2022/04/13 05:09:11;;;;;;;;;;;11.10;99.90;;;;;;5071897;28;19924;-77
2022/04/13 05:11:37;;;;;;;;;;;11.10;99.90;;;;;;5066137;28;19925;-77
2022/04/13 05:14:04;;;;;;;;;;;11.10;99.90;;;;;;5070098;28;20332;-79
2022/04/13 05:16:31;;;;;;;;;;;11.10;99.90;;;;;;5069541;28;19928;-82
2022/04/13 05:18:57;;;;;;;;;;;11.00;99.90;;;;;;5070946;28;20015;-79
2022/04/13 05:21:24;;;;;;;;;;;11.10;99.90;;;;;;5071259;28;19929;-79
2022/04/13 05:23:50;;;;;;;;;;;11.10;99.90;;;;;;5071684;28;19924;-78
2022/04/13 05:26:18;;;;;;;;;;;11.10;99.90;;;;;;5066553;28;19931;-78
2022/04/13 05:28:45;;;;;;;;;;;11.10;99.90;;;;;;5071642;28;20046;-79
2022/04/13 05:31:11;;;;;;;;;;;11.10;99.90;;;;;;5062872;28;19924;-79
2022/04/13 05:33:38;;;;;;;;;;;11.10;99.90;;;;;;5059408;28;19931;-79
2022/04/13 05:36:04;;;;;;;;;;;11.10;99.90;;;;;;5069133;28;19925;-79
2022/04/13 05:38:31;;;;;;;;;;;11.10;99.90;;;;;;5060915;28;19925;-80
2022/04/13 05:40:57;;;;;;;;;;;11.20;99.90;;;;;;5070111;28;19931;-80
2022/04/13 05:43:24;;;;;;;;;;;11.20;99.90;;;;;;5070919;28;19947;-79
2022/04/13 05:45:50;;;;;;;;;;;11.20;99.90;;;;;;5069478;28;19944;-79
2022/04/13 05:48:17;;;;;;;;;;;11.20;99.90;;;;;;5059118;28;19925;-78
2022/04/13 05:50:43;;;;;;;;;;;11.30;99.90;;;;;;5071379;28;19932;-79
2022/04/13 05:53:10;;;;;;;;;;;11.30;99.90;;;;;;5064079;28;19925;-79
2022/04/13 05:55:37;;;;;;;;;;;11.30;99.90;;;;;;5059998;28;19931;-79
2022/04/13 05:58:03;;;;;;;;;;;11.30;99.90;;;;;;5070227;28;19924;-83
2022/04/13 06:00:30;;;;;;;;;;;11.40;99.90;;;;;;5070702;28;19924;-79
2022/04/13 06:02:56;;;;;;;;;;;11.40;99.90;;;;;;5070213;28;20364;-77
2022/04/13 06:05:24;;;;;;;;;;;11.40;99.90;;;;;;5068362;28;19925;-80
2022/04/13 06:07:53;;;;;;;;;;;11.50;99.90;;;;;;5053558;28;19970;-78
2022/04/13 06:10:20;;;;;;;;;;;11.50;99.90;;;;;;5075553;28;19924;-79
2022/04/13 06:12:46;;;;;;;;;;;11.60;99.90;;;;;;5084431;28;19925;-80
2022/04/13 06:15:13;;;;;;;;;;;11.60;99.90;;;;;;5080645;28;20360;-81
2022/04/13 06:17:39;;;;;;;;;;;11.70;99.90;;;;;;5085033;28;19932;-81
2022/04/13 06:20:06;;;;;;;;;;;11.80;99.90;;;;;;5078042;28;19940;-87
2022/04/13 06:22:33;;;;;;;;;;;11.80;99.90;;;;;;5082696;28;19924;-81
2022/04/13 06:24:59;;;;;;;;;;;11.80;99.90;;;;;;5080480;28;20010;-83
2022/04/13 06:27:26;;;;;;;;;;;11.90;99.90;;;;;;5105731;27;19919;-82
2022/04/13 06:29:53;;;;;;;;;;;11.90;99.90;;;;;;5079362;28;19925;-85
2022/04/13 06:32:20;;;;;;;;;;;11.90;99.90;;;;;;5081060;28;19981;-82
2022/04/13 06:34:46;;;;;;;;;;;11.90;99.90;;;;;;5078057;28;19932;-82
2022/04/13 06:37:13;;;;;;;;;;;12.00;99.90;;;;;;5075379;28;19931;-82
2022/04/13 06:39:39;;;;;;;;;;;12.00;99.90;;;;;;5084250;28;19932;-83
2022/04/13 06:42:06;;;;;;;;;;;12.00;99.90;;;;;;5075128;28;19931;-87
2022/04/13 06:44:32;;;;;;;;;;;12.00;99.90;;;;;;5084166;28;19924;-84
2022/04/13 06:47:01;;;;;;;;;;;12.10;99.90;;;;;;5080473;28;19932;-83
2022/04/13 06:49:27;;;;;;;;;;;12.20;99.90;;;;;;5077360;28;20139;-82
2022/04/13 06:51:54;;;;;;;;;;;12.40;99.90;;;;;;5079814;28;20360;-82
2022/04/13 06:54:21;;;;;;;;;;;12.60;99.90;;;;;;5078636;28;19924;-82
2022/04/13 06:56:47;;;;;;;;;;;12.70;99.90;;;;;;5077267;28;19925;-81
2022/04/13 06:59:14;;;;;;;;;;;13.00;99.90;;;;;;5083122;28;19924;-82
2022/04/13 07:01:40;;;;;;;;;;;13.20;99.90;;;;;;5080100;28;19947;-84
2022/04/13 07:04:07;;;;;;;;;;;13.40;99.90;;;;;;5078768;28;19924;-83
2022/04/13 07:06:33;;;;;;;;;;;13.70;99.90;;;;;;5083266;28;19932;-82
2022/04/13 07:09:00;;;;;;;;;;;13.90;99.90;;;;;;5080621;28;19932;-83
2022/04/13 07:11:27;;;;;;;;;;;14.20;99.90;;;;;;5077459;28;20358;-82
2022/04/13 07:13:53;;;;;;;;;;;14.40;99.90;;;;;;5078758;28;19924;-83
2022/04/13 07:16:20;;;;;;;;;;;14.40;99.90;;;;;;5074539;28;20299;-83
2022/04/13 07:18:46;;;;;;;;;;;14.40;99.90;;;;;;5078838;28;19925;-87
2022/04/13 07:21:13;;;;;;;;;;;14.50;99.90;;;;;;5103405;27;19971;-84
2022/04/13 07:23:39;;;;;;;;;;;14.70;99.90;;;;;;5069616;28;20159;-82
2022/04/13 07:26:06;;;;;;;;;;;14.80;99.90;;;;;;5077510;28;20359;-83
2022/04/13 07:28:32;;;;;;;;;;;15.00;99.90;;;;;;5076416;28;20299;-83
2022/04/13 07:30:59;;;;;;;;;;;15.10;99.90;;;;;;5071751;28;20384;-82
2022/04/13 07:33:25;;;;;;;;;;;15.30;99.90;;;;;;5078345;28;19924;-84
2022/04/13 07:35:52;;;;;;;;;;;15.30;99.90;;;;;;5076810;28;19924;-84
2022/04/13 07:38:19;;;;;;;;;;;15.50;99.90;;;;;;5073250;28;19924;-82
2022/04/13 07:40:45;;;;;;;;;;;15.60;99.90;;;;;;5072834;28;19925;-82
2022/04/13 07:43:12;;;;;;;;;;;15.70;99.90;;;;;;5080702;28;20402;-89
2022/04/13 07:45:39;;;;;;;;;;;15.80;99.90;;;;;;5076485;28;20286;-82
2022/04/13 07:48:06;;;;;;;;;;;16.00;99.90;;;;;;5076074;28;20015;-82
2022/04/13 07:50:32;;;;;;;;;;;16.10;99.90;;;;;;5073600;28;19934;-83
2022/04/13 07:52:59;;;;;;;;;;;16.30;99.90;;;;;;5072360;28;19925;-80
2022/04/13 07:55:25;;;;;;;;;;;16.50;99.90;;;;;;5068992;28;19924;-83
2022/04/13 07:57:52;;;;;;;;;;;16.60;99.90;;;;;;5069771;28;19924;-84
2022/04/13 08:00:19;;;;;;;;;;;16.70;99.90;;;;;;5072661;28;20371;-82
2022/04/13 08:02:45;;;;;;;;;;;16.70;99.90;;;;;;5079334;28;20370;-82
2022/04/13 08:05:12;;;;;;;;;;;16.80;99.90;;;;;;5070058;28;19925;-82
2022/04/13 08:07:39;;;;;;;;;;;16.90;99.90;;;;;;5076628;28;19924;-82
2022/04/13 08:10:05;;;;;;;;;;;17.00;99.90;;;;;;5073828;28;19924;-84
2022/04/13 08:12:32;;;;;;;;;;;17.10;99.90;;;;;;5071173;28;19933;-82
2022/04/13 08:14:58;;;;;;;;;;;17.20;99.90;;;;;;5082272;28;19924;-82
2022/04/13 08:17:25;;;;;;;;;;;17.30;99.90;;;;;;5072859;28;19928;-82
2022/04/13 08:19:52;;;;;;;;;;;17.40;99.90;;;;;;5077680;28;20378;-83
2022/04/13 08:22:18;;;;;;;;;;;17.30;99.90;;;;;;5080810;28;20279;-86
2022/04/13 08:24:45;;;;;;;;;;;17.30;99.90;;;;;;5082542;28;19972;-83
2022/04/13 08:27:11;;;;;;;;;;;17.30;99.90;;;;;;5072887;28;19924;-83
2022/04/13 08:29:38;;;;;;;;;;;17.20;99.90;;;;;;5080027;28;20117;-83
2022/04/13 08:32:05;;;;;;;;;;;17.20;99.90;;;;;;5084556;28;19924;-83
2022/04/13 08:34:31;;;;;;;;;;;17.10;99.90;;;;;;5078536;28;19924;-83
2022/04/13 08:36:58;;;;;;;;;;;16.90;99.90;;;;;;5079779;28;20360;-87
2022/04/13 08:39:25;;;;;;;;;;;16.90;99.90;;;;;;5084390;28;19950;-84
2022/04/13 08:41:52;;;;;;;;;;;16.90;99.90;;;;;;5074443;28;20380;-81
2022/04/13 08:44:18;;;;;;;;;;;16.90;99.90;;;;;;5066540;28;20011;-86
2022/04/13 08:46:45;;;;;;;;;;;17.00;99.90;;;;;;5080959;28;19950;-81
2022/04/13 08:49:12;;;;;;;;;;;16.90;99.90;;;;;;5075336;28;19924;-81
2022/04/13 08:51:38;;;;;;;;;;;17.00;99.90;;;;;;5075694;28;19925;-81
2022/04/13 08:54:05;;;;;;;;;;;17.00;99.90;;;;;;5081235;28;19924;-83
2022/04/13 08:56:31;;;;;;;;;;;17.00;99.90;;;;;;5069616;28;19994;-81
2022/04/13 08:58:58;;;;;;;;;;;17.00;99.90;;;;;;5067395;28;20353;-81
2022/04/13 09:01:25;;;;;;;;;;;16.90;99.90;;;;;;5066515;28;19928;-84
2022/04/13 09:03:52;;;;;;;;;;;16.80;99.90;;;;;;5073702;28;19924;-80
2022/04/13 09:06:18;;;;;;;;;;;16.80;99.90;;;;;;5073138;28;19924;-81
2022/04/13 09:08:45;;;;;;;;;;;16.70;99.90;;;;;;5099979;27;19928;-80
2022/04/13 09:11:11;;;;;;;;;;;16.70;99.90;;;;;;5069590;28;19928;-81
2022/04/13 09:13:38;;;;;;;;;;;16.80;99.90;;;;;;5069831;28;19924;-81
2022/04/13 09:16:04;;;;;;;;;;;16.90;99.90;;;;;;5077066;28;20390;-81
2022/04/13 09:18:31;;;;;;;;;;;17.00;99.90;;;;;;5083741;28;19969;-81
2022/04/13 09:20:58;;;;;;;;;;;17.20;99.90;;;;;;5072169;28;19924;-81
2022/04/13 09:23:24;;;;;;;;;;;17.30;99.90;;;;;;5070166;28;19925;-86
2022/04/13 09:25:51;;;;;;;;;;;17.30;99.90;;;;;;5062344;28;19925;-85
2022/04/13 09:28:18;;;;;;;;;;;17.40;99.90;;;;;;5070480;28;20333;-83
2022/04/13 09:30:44;;;;;;;;;;;17.50;99.90;;;;;;5066011;28;19921;-81
2022/04/13 09:33:11;;;;;;;;;;;17.60;99.90;;;;;;5063828;28;19931;-80
2022/04/13 09:35:37;;;;;;;;;;;17.60;99.90;;;;;;5076294;28;20356;-81
2022/04/13 09:38:04;;;;;;;;;;;17.70;99.90;;;;;;5079450;28;19936;-82
2022/04/13 09:40:31;;;;;;;;;;;17.50;99.90;;;;;;5071690;28;20015;-85
2022/04/13 09:42:57;;;;;;;;;;;17.70;99.90;;;;;;5069787;28;19924;-82
2022/04/13 09:45:24;;;;;;;;;;;17.90;99.90;;;;;;5064803;28;20364;-86
2022/04/13 09:47:50;;;;;;;;;;;18.00;99.90;;;;;;5063588;28;20009;-82
2022/04/13 09:50:17;;;;;;;;;;;18.00;99.90;;;;;;5072056;28;19939;-82
2022/04/13 09:52:44;;;;;;;;;;;18.10;99.90;;;;;;5069556;28;20011;-82
2022/04/13 09:55:10;;;;;;;;;;;18.20;99.90;;;;;;5074126;28;19928;-82
2022/04/13 09:57:37;;;;;;;;;;;18.20;99.90;;;;;;5076943;28;20014;-82
2022/04/13 10:00:03;;;;;;;;;;;18.30;99.90;;;;;;5072748;28;19932;-81
2022/04/13 10:02:30;;;;;;;;;;;18.40;99.90;;;;;;5082971;28;20379;-82
2022/04/13 10:04:56;;;;;;;;;;;18.50;99.90;;;;;;5083378;28;19929;-84
2022/04/13 10:07:25;;;;;;;;;;;18.50;99.90;;;;;;5072081;28;20361;-82
2022/04/13 10:09:51;;;;;;;;;;;18.40;99.90;;;;;;5071729;28;19931;-82
2022/04/13 10:12:18;;;;;;;;;;;18.50;99.90;;;;;;5065214;28;19925;-87
2022/04/13 10:14:46;;;;;;;;;;;18.40;99.90;;;;;;5070984;28;19939;-83
2022/04/13 10:17:13;;;;;;;;;;;18.50;99.90;;;;;;5071812;28;19924;-83
2022/04/13 10:19:39;;;;;;;;;;;18.60;99.90;;;;;;5070898;28;19933;-81
2022/04/13 10:22:06;;;;;;;;;;;18.70;99.90;;;;;;5070250;28;20390;-82
2022/04/13 10:24:32;;;;;;;;;;;18.70;99.90;;;;;;5072140;28;19932;-84
2022/04/13 10:26:59;;;;;;;;;;;18.90;99.90;;;;;;5074706;28;19924;-83
2022/04/13 10:29:26;;;;;;;;;;;19.00;99.90;;;;;;5063280;28;19931;-84
2022/04/13 10:31:53;;;;;;;;;;;19.10;99.90;;;;;;5073251;28;19967;-84
2022/04/13 10:34:19;;;;;;;;;;;19.20;99.90;;;;;;5105183;28;19928;-87
2022/04/13 10:36:46;;;;;;;;;;;19.20;99.90;;;;;;5065530;28;20375;-82
2022/04/13 10:39:12;;;;;;;;;;;19.40;99.90;;;;;;5100902;28;19935;-82
2022/04/13 10:41:39;;;;;;;;;;;19.50;99.90;;;;;;5062198;28;19925;-82
2022/04/13 10:44:06;;;;;;;;;;;19.50;99.90;;;;;;5063894;28;19975;-81
2022/04/13 10:46:32;;;;;;;;;;;19.60;99.90;;;;;;5070501;28;19925;-87
2022/04/13 10:48:59;;;;;;;;;;;19.60;99.90;;;;;;5074471;28;19924;-83
2022/04/13 10:51:25;;;;;;;;;;;19.80;99.90;;;;;;5079484;28;19928;-82
2022/04/13 10:53:53;;;;;;;;;;;19.90;99.90;;;;;;5076262;28;19920;-83
2022/04/13 10:56:20;;;;;;;;;;;20.00;99.90;;;;;;5062074;28;19924;-83
2022/04/13 10:58:46;;;;;;;;;;;20.00;99.90;;;;;;5074323;28;20387;-80
2022/04/13 11:01:13;;;;;;;;;;;19.90;99.90;;;;;;5073178;28;19931;-81
2022/04/13 11:03:40;;;;;;;;;;;19.90;99.90;;;;;;5070754;28;20034;-84
2022/04/13 11:06:06;;;;;;;;;;;20.10;99.90;;;;;;5074217;28;19931;-83
2022/04/13 11:08:33;;;;;;;;;;;20.10;99.90;;;;;;5070930;28;19925;-88
2022/04/13 11:11:00;;;;;;;;;;;20.00;99.90;;;;;;5072896;28;19931;-84
2022/04/13 11:13:27;;;;;;;;;;;20.00;99.90;;;;;;5069254;28;20383;-85
2022/04/13 11:15:53;;;;;;;;;;;20.00;99.90;;;;;;5071576;28;19932;-85
2022/04/13 11:18:20;;;;;;;;;;;20.00;99.90;;;;;;5077386;28;19924;-84
2022/04/13 11:20:46;;;;;;;;;;;20.10;99.90;;;;;;5067266;28;20038;-84
2022/04/13 11:23:13;;;;;;;;;;;20.20;99.90;;;;;;5066466;28;19931;-84
2022/04/13 11:25:39;;;;;;;;;;;20.40;99.90;;;;;;5070112;28;19929;-84
2022/04/13 11:28:06;;;;;;;;;;;20.50;99.90;;;;;;5072745;28;19925;-84
2022/04/13 11:30:33;;;;;;;;;;;20.50;99.90;;;;;;5057012;28;19932;-85
2022/04/13 11:32:59;;;;;;;;;;;20.40;99.90;;;;;;5071953;28;19931;-83
2022/04/13 11:35:26;;;;;;;;;;;20.10;99.90;;;;;;5071544;28;19924;-83
2022/04/13 11:37:52;;;;;;;;;;;20.20;99.90;;;;;;5071586;28;19931;-84
2022/04/13 11:40:21;;;;;;;;;;;20.10;99.90;;;;;;5073648;28;19924;-82
2022/04/13 11:42:47;;;;;;;;;;;20.10;99.90;;;;;;5071251;28;19928;-83
2022/04/13 11:45:14;;;;;;;;;;;20.00;99.90;;;;;;5073362;28;19924;-82
2022/04/13 11:47:41;;;;;;;;;;;19.90;99.90;;;;;;5076508;28;19973;-83
2022/04/13 11:50:08;;;;;;;;;;;19.90;99.90;;;;;;5075871;28;19924;-84
2022/04/13 11:52:35;;;;;;;;;;;19.80;99.90;;;;;;5076213;28;20014;-82
2022/04/13 11:55:01;;;;;;;;;;;19.70;99.90;;;;;;5071271;28;19929;-83
2022/04/13 11:57:28;;;;;;;;;;;19.60;99.90;;;;;;5071088;28;19924;-84
2022/04/13 11:59:54;;;;;;;;;;;19.60;99.90;;;;;;5071556;28;19931;-84
2022/04/13 12:02:21;;;;;;;;;;;19.60;99.90;;;;;;5071465;28;20423;-83
2022/04/13 12:04:48;;;;;;;;;;;19.50;99.90;;;;;;5070608;28;19928;-83
2022/04/13 12:07:14;;;;;;;;;;;19.50;99.90;;;;;;5099383;27;19987;-83
2022/04/13 12:09:41;;;;;;;;;;;19.40;99.90;;;;;;5064316;28;19929;-84
2022/04/13 12:12:07;;;;;;;;;;;19.40;99.90;;;;;;5095986;28;19935;-83
2022/04/13 12:14:40;;;;;;;;;;;19.40;99.90;;;;;;5069138;28;19986;-83
2022/04/13 12:17:06;;;;;;;;;;;19.30;99.90;;;;;;5071746;28;20374;-83
2022/04/13 12:19:33;;;;;;;;;;;19.30;99.90;;;;;;5059678;28;19960;-84
2022/04/13 12:21:59;;;;;;;;;;;19.20;99.90;;;;;;5064345;28;19935;-84
2022/04/13 12:24:26;;;;;;;;;;;19.10;99.90;;;;;;5066867;28;19924;-84
2022/04/13 12:26:52;;;;;;;;;;;19.00;99.90;;;;;;5066520;28;19936;-86
2022/04/13 12:29:19;;;;;;;;;;;19.00;99.90;;;;;;5059879;28;19928;-83
2022/04/13 12:31:45;;;;;;;;;;;18.90;99.90;;;;;;5067053;28;19933;-86
2022/04/13 12:34:12;;;;;;;;;;;18.90;99.90;;;;;;5067136;28;19944;-84
2022/04/13 12:36:39;;;;;;;;;;;18.80;99.90;;;;;;5101303;28;19928;-86
2022/04/13 12:39:05;;;;;;;;;;;18.80;99.90;;;;;;5077336;28;20371;-83
2022/04/13 12:41:32;;;;;;;;;;;18.80;99.90;;;;;;5067804;28;19932;-84
2022/04/13 12:43:59;;;;;;;;;;;18.80;99.70;;;;;;5062587;28;19929;-84
2022/04/13 12:46:26;;;;;;;;;;;18.90;99.80;;;;;;5065988;28;19928;-84
2022/04/13 12:48:53;;;;;;;;;;;18.90;99.30;;;;;;5067212;28;19934;-83
2022/04/13 12:51:19;;;;;;;;;;;18.90;98.70;;;;;;5071656;28;19935;-83
2022/04/13 12:53:46;;;;;;;;;;;18.90;98.10;;;;;;5057440;28;19932;-83
2022/04/13 12:56:13;;;;;;;;;;;18.90;98.30;;;;;;5071732;28;19946;-83
2022/04/13 12:58:39;;;;;;;;;;;18.90;97.80;;;;;;5070382;28;20420;-82
2022/04/13 13:01:06;;;;;;;;;;;18.90;98.00;;;;;;5076676;28;20368;-82
2022/04/13 13:03:32;;;;;;;;;;;18.90;98.10;;;;;;5078001;28;19950;-82
2022/04/13 13:05:59;;;;;;;;;;;18.80;98.40;;;;;;5066507;28;20394;-82
2022/04/13 13:08:26;;;;;;;;;;;18.70;98.30;;;;;;5066323;28;20379;-83
2022/04/13 13:10:52;;;;;;;;;;;18.60;98.70;;;;;;5072419;28;19925;-81
2022/04/13 13:13:19;;;;;;;;;;;18.60;99.20;;;;;;5070565;28;19932;-83
2022/04/13 13:15:45;;;;;;;;;;;18.50;99.20;;;;;;5068039;28;20380;-87
2022/04/13 13:18:12;;;;;;;;;;;18.50;98.60;;;;;;5068748;28;20280;-86
2022/04/13 13:20:39;;;;;;;;;;;18.50;98.70;;;;;;5067758;28;19936;-87
2022/04/13 13:23:06;;;;;;;;;;;18.30;98.90;;;;;;5080459;28;19924;-83
2022/04/13 13:25:33;;;;;;;;;;;18.20;99.30;;;;;;5074067;28;19935;-82
2022/04/13 13:27:59;;;;;;;;;;;18.20;99.50;;;;;;5069230;28;19925;-83
2022/04/13 13:30:26;;;;;;;;;;;18.10;99.70;;;;;;5080800;28;19924;-85
2022/04/13 13:32:52;;;;;;;;;;;18.00;99.70;;;;;;5075168;28;19924;-84
2022/04/13 13:35:19;;;;;;;;;;;18.00;99.60;;;;;;5080754;28;19924;-85
2022/04/13 13:37:47;;;;;;;;;;;17.90;99.60;;;;;;5076373;28;19924;-87
2022/04/13 13:40:13;;;;;;;;;;;17.80;99.30;;;;;;5077907;28;19924;-85
2022/04/13 13:42:40;;;;;;;;;;;17.70;99.40;;;;;;5077850;28;19930;-85
2022/04/13 13:45:06;;;;;;;;;;;17.60;99.30;;;;;;5068002;28;19932;-85
2022/04/13 13:47:33;;;;;;;;;;;17.60;99.30;;;;;;5111150;28;19924;-85
2022/04/13 13:50:00;;;;;;;;;;;17.60;99.20;;;;;;5074158;28;19928;-84
2022/04/13 13:52:27;;;;;;;;;;;17.60;99.00;;;;;;5069370;28;19924;-87
2022/04/13 13:54:54;;;;;;;;;;;17.60;99.30;;;;;;5070971;28;19932;-85
2022/04/13 13:57:20;;;;;;;;;;;17.50;99.10;;;;;;5072092;28;19924;-84
2022/04/13 13:59:47;;;;;;;;;;;17.50;98.70;;;;;;5073312;28;19925;-88
2022/04/13 14:02:13;;;;;;;;;;;17.50;98.90;;;;;;5071226;28;19939;-84
2022/04/13 14:04:40;;;;;;;;;;;17.50;99.40;;;;;;5062950;28;20387;-85
2022/04/13 14:07:06;;;;;;;;;;;17.50;99.30;;;;;;5069400;28;19920;-84
2022/04/13 14:09:33;;;;;;;;;;;17.50;99.30;;;;;;5066197;28;19932;-85
2022/04/13 14:12:00;;;;;;;;;;;17.50;99.40;;;;;;5068196;28;19924;-84